sensor_id;sensor_type;location;lat;lon;timestamp;pressure;altitude;pressure_sealevel;temperature;humidity
80294;BME280;69594;43.516;1.498;2023-04-25T00:01:44;99648.19;;;16.45;68.96
80294;BME280;69594;43.516;1.498;2023-04-25T00:04:10;99646.31;;;16.39;69.45
80294;BME280;69594;43.516;1.498;2023-04-25T00:06:36;99646.56;;;16.44;69.08
80294;BME280;69594;43.516;1.498;2023-04-25T00:09:06;99649.19;;;16.44;69.27
80294;BME280;69594;43.516;1.498;2023-04-25T00:11:35;99645.53;;;16.45;69.22
80294;BME280;69594;43.516;1.498;2023-04-25T00:14:00;99643.13;;;16.50;69.00
80294;BME280;69594;43.516;1.498;2023-04-25T00:16:28;99645.16;;;16.48;69.20
80294;BME280;69594;43.516;1.498;2023-04-25T00:18:54;99638.47;;;16.52;69.47
80294;BME280;69594;43.516;1.498;2023-04-25T00:21:20;99634.78;;;16.53;69.18
80294;BME280;69594;43.516;1.498;2023-04-25T00:23:46;99621.31;;;16.48;69.61
80294;BME280;69594;43.516;1.498;2023-04-25T00:26:12;99631.13;;;16.54;69.56
80294;BME280;69594;43.516;1.498;2023-04-25T00:28:39;99627.47;;;16.55;69.63
80294;BME280;69594;43.516;1.498;2023-04-25T00:31:04;99631.91;;;16.48;69.97
80294;BME280;69594;43.516;1.498;2023-04-25T00:33:30;99621.81;;;16.58;69.56
80294;BME280;69594;43.516;1.498;2023-04-25T00:35:55;99615.06;;;16.56;69.71
80294;BME280;69594;43.516;1.498;2023-04-25T00:38:21;99620.34;;;16.56;69.77
80294;BME280;69594;43.516;1.498;2023-04-25T00:40:47;99620.72;;;16.53;69.97
80294;BME280;69594;43.516;1.498;2023-04-25T00:43:13;99623.13;;;16.41;70.65
80294;BME280;69594;43.516;1.498;2023-04-25T00:45:39;99621.94;;;16.50;70.05
80294;BME280;69594;43.516;1.498;2023-04-25T00:48:05;99622.81;;;16.57;70.19
80294;BME280;69594;43.516;1.498;2023-04-25T00:50:33;99621.75;;;16.52;70.32
80294;BME280;69594;43.516;1.498;2023-04-25T00:52:58;99617.84;;;16.48;70.69
80294;BME280;69594;43.516;1.498;2023-04-25T00:55:24;99617.38;;;16.38;71.06
80294;BME280;69594;43.516;1.498;2023-04-25T00:57:50;99611.94;;;16.46;70.63
80294;BME280;69594;43.516;1.498;2023-04-25T01:00:16;99621.13;;;16.50;70.47
80294;BME280;69594;43.516;1.498;2023-04-25T01:02:42;99611.59;;;16.55;70.24
80294;BME280;69594;43.516;1.498;2023-04-25T01:05:08;99615.97;;;16.63;70.07
80294;BME280;69594;43.516;1.498;2023-04-25T01:07:34;99616.38;;;16.67;70.03
80294;BME280;69594;43.516;1.498;2023-04-25T01:09:59;99609.53;;;16.51;70.93
80294;BME280;69594;43.516;1.498;2023-04-25T01:12:25;99613.88;;;16.58;70.50
80294;BME280;69594;43.516;1.498;2023-04-25T01:14:52;99609.63;;;16.64;69.93
80294;BME280;69594;43.516;1.498;2023-04-25T01:17:18;99604.28;;;16.57;70.13
80294;BME280;69594;43.516;1.498;2023-04-25T01:19:44;99602.63;;;16.56;70.58
80294;BME280;69594;43.516;1.498;2023-04-25T01:22:11;99607.38;;;16.61;70.29
80294;BME280;69594;43.516;1.498;2023-04-25T01:24:37;99601.81;;;16.56;70.68
80294;BME280;69594;43.516;1.498;2023-04-25T01:27:03;99613.59;;;16.47;75.57
80294;BME280;69594;43.516;1.498;2023-04-25T01:29:29;99605.91;;;16.58;70.61
80294;BME280;69594;43.516;1.498;2023-04-25T01:31:55;99621.63;;;16.60;70.41
80294;BME280;69594;43.516;1.498;2023-04-25T01:34:24;99620.53;;;16.54;70.52
80294;BME280;69594;43.516;1.498;2023-04-25T01:36:51;99612.84;;;16.60;70.71
80294;BME280;69594;43.516;1.498;2023-04-25T01:39:20;99611.31;;;16.44;71.91
80294;BME280;69594;43.516;1.498;2023-04-25T01:41:47;99610.25;;;16.38;71.75
80294;BME280;69594;43.516;1.498;2023-04-25T01:44:14;99606.19;;;16.36;71.51
80294;BME280;69594;43.516;1.498;2023-04-25T01:46:40;99608.59;;;16.31;71.55
80294;BME280;69594;43.516;1.498;2023-04-25T01:49:05;99599.91;;;16.43;71.08
80294;BME280;69594;43.516;1.498;2023-04-25T01:51:30;99601.50;;;16.38;71.28
80294;BME280;69594;43.516;1.498;2023-04-25T01:53:57;99596.00;;;16.39;71.23
80294;BME280;69594;43.516;1.498;2023-04-25T01:56:22;99587.44;;;16.31;71.57
80294;BME280;69594;43.516;1.498;2023-04-25T01:58:48;99591.25;;;16.28;71.43
80294;BME280;69594;43.516;1.498;2023-04-25T02:01:13;99593.69;;;16.23;71.86
80294;BME280;69594;43.516;1.498;2023-04-25T02:03:39;99585.31;;;16.20;71.85
80294;BME280;69594;43.516;1.498;2023-04-25T02:06:06;99589.38;;;16.22;71.78
80294;BME280;69594;43.516;1.498;2023-04-25T02:08:34;99593.44;;;16.18;72.24
80294;BME280;69594;43.516;1.498;2023-04-25T02:10:59;99593.88;;;16.22;72.09
80294;BME280;69594;43.516;1.498;2023-04-25T02:13:25;99588.38;;;16.23;72.10
80294;BME280;69594;43.516;1.498;2023-04-25T02:15:50;99583.16;;;16.02;72.97
80294;BME280;69594;43.516;1.498;2023-04-25T02:18:28;99582.72;;;15.98;74.06
80294;BME280;69594;43.516;1.498;2023-04-25T02:20:54;99581.66;;;16.21;72.07
80294;BME280;69594;43.516;1.498;2023-04-25T02:23:19;99574.25;;;16.09;73.29
80294;BME280;69594;43.516;1.498;2023-04-25T02:25:45;99570.59;;;16.10;72.89
80294;BME280;69594;43.516;1.498;2023-04-25T02:28:11;99578.31;;;16.05;72.68
80294;BME280;69594;43.516;1.498;2023-04-25T02:30:36;99569.69;;;15.97;73.08
80294;BME280;69594;43.516;1.498;2023-04-25T02:33:01;99574.25;;;16.09;72.21
80294;BME280;69594;43.516;1.498;2023-04-25T02:35:28;99575.91;;;16.10;72.15
80294;BME280;69594;43.516;1.498;2023-04-25T02:37:53;99572.81;;;16.07;72.36
80294;BME280;69594;43.516;1.498;2023-04-25T02:40:19;99585.25;;;16.13;71.91
80294;BME280;69594;43.516;1.498;2023-04-25T02:42:44;99584.66;;;16.11;72.08
80294;BME280;69594;43.516;1.498;2023-04-25T02:45:11;99577.13;;;16.14;71.90
80294;BME280;69594;43.516;1.498;2023-04-25T02:47:36;99577.03;;;16.01;72.27
80294;BME280;69594;43.516;1.498;2023-04-25T02:50:02;99578.09;;;16.07;72.05
80294;BME280;69594;43.516;1.498;2023-04-25T02:52:28;99581.63;;;16.14;71.65
80294;BME280;69594;43.516;1.498;2023-04-25T02:54:53;99584.06;;;16.15;71.90
80294;BME280;69594;43.516;1.498;2023-04-25T02:57:20;99578.72;;;16.09;71.96
80294;BME280;69594;43.516;1.498;2023-04-25T02:59:46;99576.91;;;16.09;72.08
80294;BME280;69594;43.516;1.498;2023-04-25T03:02:11;99579.38;;;16.17;71.85
80294;BME280;69594;43.516;1.498;2023-04-25T03:04:37;99582.84;;;16.18;71.62
80294;BME280;69594;43.516;1.498;2023-04-25T03:07:04;99579.59;;;16.16;71.68
80294;BME280;69594;43.516;1.498;2023-04-25T03:09:30;99577.19;;;16.21;71.42
80294;BME280;69594;43.516;1.498;2023-04-25T03:11:55;99567.03;;;16.25;71.44
80294;BME280;69594;43.516;1.498;2023-04-25T03:14:20;99579.59;;;16.16;71.82
80294;BME280;69594;43.516;1.498;2023-04-25T03:16:46;99571.56;;;16.03;76.29
80294;BME280;69594;43.516;1.498;2023-04-25T03:19:11;99571.63;;;16.09;73.90
80294;BME280;69594;43.516;1.498;2023-04-25T03:21:37;99576.72;;;16.11;73.16
80294;BME280;69594;43.516;1.498;2023-04-25T03:24:04;99571.72;;;15.95;73.98
80294;BME280;69594;43.516;1.498;2023-04-25T03:26:30;99570.75;;;16.02;73.57
80294;BME280;69594;43.516;1.498;2023-04-25T03:28:56;99573.00;;;16.05;72.91
80294;BME280;69594;43.516;1.498;2023-04-25T03:31:21;99560.69;;;15.91;74.57
80294;BME280;69594;43.516;1.498;2023-04-25T03:33:47;99563.53;;;15.90;75.59
80294;BME280;69594;43.516;1.498;2023-04-25T03:36:13;99567.06;;;15.76;75.01
80294;BME280;69594;43.516;1.498;2023-04-25T03:38:38;99559.59;;;15.79;74.61
80294;BME280;69594;43.516;1.498;2023-04-25T03:41:04;99562.34;;;15.64;75.34
80294;BME280;69594;43.516;1.498;2023-04-25T03:43:29;99554.91;;;15.81;75.74
80294;BME280;69594;43.516;1.498;2023-04-25T03:45:55;99559.50;;;15.94;74.20
80294;BME280;69594;43.516;1.498;2023-04-25T03:48:21;99564.19;;;15.98;73.95
80294;BME280;69594;43.516;1.498;2023-04-25T03:50:47;99551.63;;;16.07;73.02
80294;BME280;69594;43.516;1.498;2023-04-25T03:53:13;99546.56;;;16.12;72.85
80294;BME280;69594;43.516;1.498;2023-04-25T03:55:38;99559.66;;;16.20;72.59
80294;BME280;69594;43.516;1.498;2023-04-25T03:58:04;99553.38;;;16.21;72.53
80294;BME280;69594;43.516;1.498;2023-04-25T04:00:30;99552.31;;;16.15;72.51
80294;BME280;69594;43.516;1.498;2023-04-25T04:02:55;99553.50;;;16.13;72.46
80294;BME280;69594;43.516;1.498;2023-04-25T04:05:21;99549.13;;;16.27;71.97
80294;BME280;69594;43.516;1.498;2023-04-25T04:07:46;99546.91;;;16.30;71.84
80294;BME280;69594;43.516;1.498;2023-04-25T04:10:12;99543.03;;;16.33;71.79
80294;BME280;69594;43.516;1.498;2023-04-25T04:12:37;99547.50;;;16.32;71.82
80294;BME280;69594;43.516;1.498;2023-04-25T04:15:07;99533.59;;;16.17;72.85
80294;BME280;69594;43.516;1.498;2023-04-25T04:17:34;99541.34;;;16.19;72.36
80294;BME280;69594;43.516;1.498;2023-04-25T04:19:59;99541.38;;;16.25;72.15
80294;BME280;69594;43.516;1.498;2023-04-25T04:22:26;99535.69;;;16.28;72.06
80294;BME280;69594;43.516;1.498;2023-04-25T04:24:51;99522.66;;;16.27;72.16
80294;BME280;69594;43.516;1.498;2023-04-25T04:27:21;99526.56;;;16.31;71.55
80294;BME280;69594;43.516;1.498;2023-04-25T04:29:46;99522.91;;;16.32;71.53
80294;BME280;69594;43.516;1.498;2023-04-25T04:32:13;99528.38;;;16.30;71.69
80294;BME280;69594;43.516;1.498;2023-04-25T04:34:38;99532.84;;;16.30;71.81
80294;BME280;69594;43.516;1.498;2023-04-25T04:37:04;99530.78;;;16.25;72.07
80294;BME280;69594;43.516;1.498;2023-04-25T04:39:30;99520.44;;;16.30;71.89
80294;BME280;69594;43.516;1.498;2023-04-25T04:41:55;99519.81;;;16.28;71.58
80294;BME280;69594;43.516;1.498;2023-04-25T04:44:21;99527.16;;;16.33;71.53
80294;BME280;69594;43.516;1.498;2023-04-25T04:46:46;99518.38;;;16.26;71.64
80294;BME280;69594;43.516;1.498;2023-04-25T04:49:12;99523.31;;;16.35;71.42
80294;BME280;69594;43.516;1.498;2023-04-25T04:51:39;99519.66;;;16.36;71.10
80294;BME280;69594;43.516;1.498;2023-04-25T04:54:05;99530.03;;;16.38;71.30
80294;BME280;69594;43.516;1.498;2023-04-25T04:56:31;99520.66;;;16.35;71.08
80294;BME280;69594;43.516;1.498;2023-04-25T04:58:57;99527.16;;;16.33;71.34
80294;BME280;69594;43.516;1.498;2023-04-25T05:01:23;99528.00;;;16.40;71.15
80294;BME280;69594;43.516;1.498;2023-04-25T05:03:48;99524.59;;;16.46;71.12
80294;BME280;69594;43.516;1.498;2023-04-25T05:06:15;99530.88;;;16.45;71.47
80294;BME280;69594;43.516;1.498;2023-04-25T05:08:40;99528.88;;;16.47;71.14
80294;BME280;69594;43.516;1.498;2023-04-25T05:11:05;99533.31;;;16.40;71.62
80294;BME280;69594;43.516;1.498;2023-04-25T05:13:31;99523.75;;;16.45;71.54
80294;BME280;69594;43.516;1.498;2023-04-25T05:15:56;99528.88;;;16.53;71.14
80294;BME280;69594;43.516;1.498;2023-04-25T05:18:23;99523.16;;;16.50;71.17
80294;BME280;69594;43.516;1.498;2023-04-25T05:20:48;99528.47;;;16.50;71.24
80294;BME280;69594;43.516;1.498;2023-04-25T05:23:13;99521.56;;;16.55;71.02
80294;BME280;69594;43.516;1.498;2023-04-25T05:25:42;99524.06;;;16.64;71.16
80294;BME280;69594;43.516;1.498;2023-04-25T05:28:07;99519.63;;;16.71;70.94
80294;BME280;69594;43.516;1.498;2023-04-25T05:30:34;99523.09;;;16.78;70.83
80294;BME280;69594;43.516;1.498;2023-04-25T05:32:59;99535.53;;;16.77;70.88
80294;BME280;69594;43.516;1.498;2023-04-25T05:35:25;99540.19;;;16.75;71.08
80294;BME280;69594;43.516;1.498;2023-04-25T05:37:51;99545.69;;;16.74;70.95
80294;BME280;69594;43.516;1.498;2023-04-25T05:40:16;99533.88;;;16.70;71.25
80294;BME280;69594;43.516;1.498;2023-04-25T05:42:42;99543.25;;;16.79;70.78
80294;BME280;69594;43.516;1.498;2023-04-25T05:45:07;99542.25;;;16.80;71.00
80294;BME280;69594;43.516;1.498;2023-04-25T05:47:33;99539.59;;;16.80;71.22
80294;BME280;69594;43.516;1.498;2023-04-25T05:49:58;99539.78;;;16.72;71.95
80294;BME280;69594;43.516;1.498;2023-04-25T05:52:24;99533.09;;;16.82;71.33
80294;BME280;69594;43.516;1.498;2023-04-25T05:54:50;99539.00;;;16.78;72.44
80294;BME280;69594;43.516;1.498;2023-04-25T05:57:25;99532.31;;;16.95;71.18
80294;BME280;69594;43.516;1.498;2023-04-25T05:59:51;99529.69;;;17.02;71.15
80294;BME280;69594;43.516;1.498;2023-04-25T06:02:18;99532.56;;;17.13;70.95
80294;BME280;69594;43.516;1.498;2023-04-25T06:04:43;99539.31;;;17.22;70.36
80294;BME280;69594;43.516;1.498;2023-04-25T06:07:09;99540.72;;;17.12;71.13
80294;BME280;69594;43.516;1.498;2023-04-25T06:09:34;99542.75;;;17.03;71.14
80294;BME280;69594;43.516;1.498;2023-04-25T06:12:00;99542.53;;;16.98;71.29
80294;BME280;69594;43.516;1.498;2023-04-25T06:14:26;99538.84;;;16.92;71.53
80294;BME280;69594;43.516;1.498;2023-04-25T06:16:51;99543.34;;;17.05;70.92
80294;BME280;69594;43.516;1.498;2023-04-25T06:19:16;99539.66;;;16.93;71.62
80294;BME280;69594;43.516;1.498;2023-04-25T06:21:44;99536.78;;;16.88;71.52
80294;BME280;69594;43.516;1.498;2023-04-25T06:24:09;99530.09;;;16.98;71.05
80294;BME280;69594;43.516;1.498;2023-04-25T06:26:35;99534.34;;;16.99;71.16
80294;BME280;69594;43.516;1.498;2023-04-25T06:29:00;99524.41;;;17.08;71.05
80294;BME280;69594;43.516;1.498;2023-04-25T06:31:27;99532.75;;;17.05;71.10
80294;BME280;69594;43.516;1.498;2023-04-25T06:33:54;99529.09;;;17.26;70.41
80294;BME280;69594;43.516;1.498;2023-04-25T06:36:20;99529.53;;;17.36;69.91
80294;BME280;69594;43.516;1.498;2023-04-25T06:38:50;99529.94;;;17.26;70.83
80294;BME280;69594;43.516;1.498;2023-04-25T06:41:16;99530.16;;;17.58;69.60
80294;BME280;69594;43.516;1.498;2023-04-25T06:43:41;99531.84;;;17.65;69.72
80294;BME280;69594;43.516;1.498;2023-04-25T06:46:07;99532.00;;;17.90;68.91
80294;BME280;69594;43.516;1.498;2023-04-25T06:48:32;99522.41;;;18.02;68.68
80294;BME280;69594;43.516;1.498;2023-04-25T06:50:57;99520.19;;;17.86;69.33
80294;BME280;69594;43.516;1.498;2023-04-25T06:53:23;99511.75;;;18.09;68.58
80294;BME280;69594;43.516;1.498;2023-04-25T06:55:48;99521.56;;;18.08;68.38
80294;BME280;69594;43.516;1.498;2023-04-25T06:58:14;99515.59;;;18.19;68.32
80294;BME280;69594;43.516;1.498;2023-04-25T07:00:40;99518.81;;;18.35;67.92
80294;BME280;69594;43.516;1.498;2023-04-25T07:03:06;99525.97;;;18.34;67.65
80294;BME280;69594;43.516;1.498;2023-04-25T07:05:31;99526.00;;;18.27;68.24
80294;BME280;69594;43.516;1.498;2023-04-25T07:07:57;99528.47;;;18.22;67.97
80294;BME280;69594;43.516;1.498;2023-04-25T07:10:23;99544.22;;;18.17;68.34
80294;BME280;69594;43.516;1.498;2023-04-25T07:12:50;99531.38;;;18.08;68.55
80294;BME280;69594;43.516;1.498;2023-04-25T07:15:15;99539.75;;;17.98;68.85
80294;BME280;69594;43.516;1.498;2023-04-25T07:17:41;99538.91;;;18.04;68.79
80294;BME280;69594;43.516;1.498;2023-04-25T07:20:07;99541.81;;;17.83;69.59
80294;BME280;69594;43.516;1.498;2023-04-25T07:22:34;99546.09;;;17.97;68.80
80294;BME280;69594;43.516;1.498;2023-04-25T07:24:59;99547.09;;;18.03;68.59
80294;BME280;69594;43.516;1.498;2023-04-25T07:27:25;99549.72;;;18.09;68.64
80294;BME280;69594;43.516;1.498;2023-04-25T07:29:50;99547.31;;;17.95;68.55
80294;BME280;69594;43.516;1.498;2023-04-25T07:32:16;99558.94;;;18.13;68.38
80294;BME280;69594;43.516;1.498;2023-04-25T07:34:41;99564.22;;;18.20;68.30
80294;BME280;69594;43.516;1.498;2023-04-25T07:37:07;99560.53;;;18.14;68.41
80294;BME280;69594;43.516;1.498;2023-04-25T07:39:33;99568.94;;;18.11;68.82
80294;BME280;69594;43.516;1.498;2023-04-25T07:41:58;99564.81;;;18.22;68.14
80294;BME280;69594;43.516;1.498;2023-04-25T07:44:25;99580.94;;;18.27;68.40
80294;BME280;69594;43.516;1.498;2023-04-25T07:46:57;99568.25;;;18.42;67.79
80294;BME280;69594;43.516;1.498;2023-04-25T07:49:23;99554.53;;;18.52;67.58
80294;BME280;69594;43.516;1.498;2023-04-25T07:51:48;99554.66;;;18.77;67.80
80294;BME280;69594;43.516;1.498;2023-04-25T07:54:14;99564.09;;;18.66;67.72
80294;BME280;69594;43.516;1.498;2023-04-25T07:56:41;99581.13;;;18.39;68.58
80294;BME280;69594;43.516;1.498;2023-04-25T07:59:06;99585.91;;;17.71;69.56
80294;BME280;69594;43.516;1.498;2023-04-25T08:01:31;99599.03;;;16.64;73.05
80294;BME280;69594;43.516;1.498;2023-04-25T08:03:57;99605.25;;;16.91;71.36
80294;BME280;69594;43.516;1.498;2023-04-25T08:06:25;99606.38;;;16.34;71.55
80294;BME280;69594;43.516;1.498;2023-04-25T08:08:51;99611.78;;;16.54;72.11
80294;BME280;69594;43.516;1.498;2023-04-25T08:11:16;99616.31;;;16.32;71.03
80294;BME280;69594;43.516;1.498;2023-04-25T08:13:43;99622.72;;;16.10;70.56
80294;BME280;69594;43.516;1.498;2023-04-25T08:16:09;99622.44;;;16.33;70.26
80294;BME280;69594;43.516;1.498;2023-04-25T08:18:34;99636.72;;;16.38;69.69
80294;BME280;69594;43.516;1.498;2023-04-25T08:21:01;99630.13;;;16.21;70.08
80294;BME280;69594;43.516;1.498;2023-04-25T08:23:26;99623.34;;;15.91;70.93
80294;BME280;69594;43.516;1.498;2023-04-25T08:25:52;99624.13;;;16.12;70.30
80294;BME280;69594;43.516;1.498;2023-04-25T08:28:18;99628.41;;;16.13;70.65
80294;BME280;69594;43.516;1.498;2023-04-25T08:30:43;99625.09;;;16.61;69.50
80294;BME280;69594;43.516;1.498;2023-04-25T08:33:10;99624.66;;;16.57;69.29
80294;BME280;69594;43.516;1.498;2023-04-25T08:35:37;99642.22;;;16.65;69.04
80294;BME280;69594;43.516;1.498;2023-04-25T08:38:02;99637.13;;;17.04;67.85
80294;BME280;69594;43.516;1.498;2023-04-25T08:40:28;99644.44;;;17.02;68.02
80294;BME280;69594;43.516;1.498;2023-04-25T08:42:57;99655.69;;;17.04;67.88
80294;BME280;69594;43.516;1.498;2023-04-25T08:45:25;99657.66;;;16.89;68.10
80294;BME280;69594;43.516;1.498;2023-04-25T08:47:53;99666.94;;;17.19;67.20
80294;BME280;69594;43.516;1.498;2023-04-25T08:50:19;99672.63;;;17.16;67.56
80294;BME280;69594;43.516;1.498;2023-04-25T08:52:46;99683.81;;;17.12;67.57
80294;BME280;69594;43.516;1.498;2023-04-25T08:55:13;99683.63;;;17.13;67.38
80294;BME280;69594;43.516;1.498;2023-04-25T08:57:41;99693.34;;;16.99;67.37
80294;BME280;69594;43.516;1.498;2023-04-25T09:00:09;99704.69;;;16.87;67.59
80294;BME280;69594;43.516;1.498;2023-04-25T09:02:35;99701.50;;;16.98;67.74
80294;BME280;69594;43.516;1.498;2023-04-25T09:05:02;99705.69;;;17.27;66.69
80294;BME280;69594;43.516;1.498;2023-04-25T09:07:29;99712.72;;;17.48;66.13
80294;BME280;69594;43.516;1.498;2023-04-25T09:09:55;99709.06;;;17.55;66.44
80294;BME280;69594;43.516;1.498;2023-04-25T09:12:21;99716.28;;;17.20;67.12
80294;BME280;69594;43.516;1.498;2023-04-25T09:15:11;99717.84;;;17.56;65.56
80294;BME280;69594;43.516;1.498;2023-04-25T09:17:37;99714.63;;;17.60;66.01
80294;BME280;69594;43.516;1.498;2023-04-25T09:20:15;99721.78;;;17.73;65.58
80294;BME280;69594;43.516;1.498;2023-04-25T09:22:41;99725.69;;;17.83;65.62
80294;BME280;69594;43.516;1.498;2023-04-25T09:25:09;99718.09;;;17.67;65.48
80294;BME280;69594;43.516;1.498;2023-04-25T09:27:35;99728.38;;;17.90;65.13
80294;BME280;69594;43.516;1.498;2023-04-25T09:30:02;99736.47;;;17.69;65.62
80294;BME280;69594;43.516;1.498;2023-04-25T09:32:28;99741.22;;;17.32;65.98
80294;BME280;69594;43.516;1.498;2023-04-25T09:34:55;99736.25;;;17.16;66.45
80294;BME280;69594;43.516;1.498;2023-04-25T09:39:49;99747.66;;;17.17;66.94
80294;BME280;69594;43.516;1.498;2023-04-25T09:42:16;99749.97;;;16.92;68.49
80294;BME280;69594;43.516;1.498;2023-04-25T09:44:46;99751.06;;;17.04;67.62
80294;BME280;69594;43.516;1.498;2023-04-25T09:47:14;99756.25;;;17.19;66.70
80294;BME280;69594;43.516;1.498;2023-04-25T09:49:41;99753.00;;;17.23;66.33
80294;BME280;69594;43.516;1.498;2023-04-25T09:52:20;99754.41;;;17.19;66.32
80294;BME280;69594;43.516;1.498;2023-04-25T09:54:47;99759.22;;;17.43;66.76
80294;BME280;69594;43.516;1.498;2023-04-25T09:57:20;99748.19;;;17.47;66.17
80294;BME280;69594;43.516;1.498;2023-04-25T09:59:52;99754.88;;;17.29;66.11
80294;BME280;69594;43.516;1.498;2023-04-25T10:02:27;99759.09;;;17.17;66.85
80294;BME280;69594;43.516;1.498;2023-04-25T10:04:54;99753.97;;;17.09;67.26
80294;BME280;69594;43.516;1.498;2023-04-25T10:07:25;99744.03;;;17.24;68.03
80294;BME280;69594;43.516;1.498;2023-04-25T10:10:01;99748.75;;;17.29;66.44
80294;BME280;69594;43.516;1.498;2023-04-25T10:12:28;99759.28;;;17.16;67.07
80294;BME280;69594;43.516;1.498;2023-04-25T10:15:00;99755.75;;;17.02;66.28
80294;BME280;69594;43.516;1.498;2023-04-25T10:17:27;99760.25;;;17.08;66.24
80294;BME280;69594;43.516;1.498;2023-04-25T10:19:54;99761.63;;;16.70;67.57
80294;BME280;69594;43.516;1.498;2023-04-25T10:22:37;99743.44;;;16.88;67.08
80294;BME280;69594;43.516;1.498;2023-04-25T10:25:06;99753.31;;;17.07;66.77
80294;BME280;69594;43.516;1.498;2023-04-25T10:27:32;99750.53;;;17.22;66.28
80294;BME280;69594;43.516;1.498;2023-04-25T10:30:08;99755.28;;;16.92;69.30
80294;BME280;69594;43.516;1.498;2023-04-25T10:32:36;99753.56;;;17.12;67.02
80294;BME280;69594;43.516;1.498;2023-04-25T10:35:25;99748.06;;;17.14;67.05
80294;BME280;69594;43.516;1.498;2023-04-25T10:37:58;99749.25;;;17.11;66.92
80294;BME280;69594;43.516;1.498;2023-04-25T10:40:25;99749.97;;;17.74;65.74
80294;BME280;69594;43.516;1.498;2023-04-25T10:42:56;99736.78;;;18.07;64.16
80294;BME280;69594;43.516;1.498;2023-04-25T10:45:51;99733.69;;;18.82;61.16
80294;BME280;69594;43.516;1.498;2023-04-25T10:48:25;99727.69;;;19.13;60.81
80294;BME280;69594;43.516;1.498;2023-04-25T10:51:15;99734.09;;;18.92;60.22
80294;BME280;69594;43.516;1.498;2023-04-25T10:53:44;99730.59;;;19.05;60.69
80294;BME280;69594;43.516;1.498;2023-04-25T10:56:19;99740.41;;;18.91;61.58
80294;BME280;69594;43.516;1.498;2023-04-25T10:58:46;99738.22;;;18.62;62.59
80294;BME280;69594;43.516;1.498;2023-04-25T11:01:13;99732.91;;;18.49;62.79
80294;BME280;69594;43.516;1.498;2023-04-25T11:03:43;99729.44;;;18.55;62.33
80294;BME280;69594;43.516;1.498;2023-04-25T11:06:22;99743.91;;;18.19;62.94
80294;BME280;69594;43.516;1.498;2023-04-25T11:08:50;99738.22;;;18.36;62.93
80294;BME280;69594;43.516;1.498;2023-04-25T11:11:18;99737.91;;;17.65;64.62
80294;BME280;69594;43.516;1.498;2023-04-25T11:13:44;99733.69;;;18.10;64.12
80294;BME280;69594;43.516;1.498;2023-04-25T11:16:13;99728.41;;;18.16;63.63
80294;BME280;69594;43.516;1.498;2023-04-25T11:18:43;99725.53;;;18.51;62.71
80294;BME280;69594;43.516;1.498;2023-04-25T11:21:11;99729.50;;;19.26;61.34
80294;BME280;69594;43.516;1.498;2023-04-25T11:23:36;99721.81;;;19.62;60.45
80294;BME280;69594;43.516;1.498;2023-04-25T11:26:03;99716.16;;;20.15;59.83
80294;BME280;69594;43.516;1.498;2023-04-25T11:28:29;99716.00;;;20.59;58.85
80294;BME280;69594;43.516;1.498;2023-04-25T11:30:55;99717.78;;;20.65;58.43
80294;BME280;69594;43.516;1.498;2023-04-25T11:33:24;99720.03;;;21.05;56.83
80294;BME280;69594;43.516;1.498;2023-04-25T11:35:54;99711.97;;;21.11;56.38
80294;BME280;69594;43.516;1.498;2023-04-25T11:38:24;99706.69;;;21.41;55.99
80294;BME280;69594;43.516;1.498;2023-04-25T11:40:54;99704.56;;;21.61;55.45
80294;BME280;69594;43.516;1.498;2023-04-25T11:43:21;99712.00;;;21.59;55.71
80294;BME280;69594;43.516;1.498;2023-04-25T11:45:48;99715.16;;;21.20;56.29
80294;BME280;69594;43.516;1.498;2023-04-25T11:48:14;99715.31;;;21.25;56.54
80294;BME280;69594;43.516;1.498;2023-04-25T11:50:39;99701.41;;;21.83;55.19
80294;BME280;69594;43.516;1.498;2023-04-25T11:53:05;99705.91;;;21.82;55.26
80294;BME280;69594;43.516;1.498;2023-04-25T11:55:31;99697.16;;;21.63;55.47
80294;BME280;69594;43.516;1.498;2023-04-25T11:58:00;99693.94;;;21.73;54.15
80294;BME280;69594;43.516;1.498;2023-04-25T12:00:26;99690.28;;;21.56;55.41
80294;BME280;69594;43.516;1.498;2023-04-25T12:02:55;99682.38;;;21.49;54.89
80294;BME280;69594;43.516;1.498;2023-04-25T12:05:28;99692.91;;;21.44;55.19
80294;BME280;69594;43.516;1.498;2023-04-25T12:07:57;99693.19;;;21.54;55.04
80294;BME280;69594;43.516;1.498;2023-04-25T12:10:24;99688.41;;;21.45;56.07
80294;BME280;69594;43.516;1.498;2023-04-25T12:12:51;99686.63;;;21.39;55.87
80294;BME280;69594;43.516;1.498;2023-04-25T12:15:24;99692.25;;;21.49;55.47
80294;BME280;69594;43.516;1.498;2023-04-25T12:17:52;99689.94;;;21.52;55.35
80294;BME280;69594;43.516;1.498;2023-04-25T12:20:20;99691.31;;;21.25;55.58
80294;BME280;69594;43.516;1.498;2023-04-25T12:22:49;99690.50;;;21.84;54.56
80294;BME280;69594;43.516;1.498;2023-04-25T12:31:11;99685.94;;;21.43;53.83
80294;BME280;69594;43.516;1.498;2023-04-25T12:33:37;99689.31;;;21.50;55.63
80294;BME280;69594;43.516;1.498;2023-04-25T12:36:05;99694.03;;;21.67;55.11
80294;BME280;69594;43.516;1.498;2023-04-25T12:38:39;99687.75;;;21.31;56.25
80294;BME280;69594;43.516;1.498;2023-04-25T12:41:05;99699.16;;;21.02;57.14
80294;BME280;69594;43.516;1.498;2023-04-25T12:43:31;99695.78;;;20.70;57.81
80294;BME280;69594;43.516;1.498;2023-04-25T12:45:57;99694.66;;;20.59;58.66
80294;BME280;69594;43.516;1.498;2023-04-25T12:48:25;99685.03;;;20.40;58.15
80294;BME280;69594;43.516;1.498;2023-04-25T12:50:51;99699.88;;;20.72;57.85
80294;BME280;69594;43.516;1.498;2023-04-25T12:53:22;99703.53;;;20.53;58.36
80294;BME280;69594;43.516;1.498;2023-04-25T12:55:51;99706.72;;;20.44;58.36
80294;BME280;69594;43.516;1.498;2023-04-25T12:58:18;99694.72;;;20.28;58.11
80294;BME280;69594;43.516;1.498;2023-04-25T13:00:45;99705.69;;;20.45;58.37
80294;BME280;69594;43.516;1.498;2023-04-25T13:03:11;99704.34;;;20.35;58.72
80294;BME280;69594;43.516;1.498;2023-04-25T13:05:38;99705.09;;;20.11;59.47
80294;BME280;69594;43.516;1.498;2023-04-25T13:08:04;99701.69;;;20.54;58.74